Time;durP1;ratioP1;P1;durP2;ratioP2;P2;SDS_P1;SDS_P2;PMS_P1;PMS_P2;Temp;Humidity;BMP_temperature;BMP_pressure;BME280_temperature;BME280_humidity;BME280_pressure;Samples;Min_cycle;Max_cycle;Signal;HPM_P1;HPM_P2
2022/06/07 00:01:59;;;;;;;;;;;13.40;99.90;;;;;;5092976;28;19920;-69
2022/06/07 00:04:24;;;;;;;;;;;13.50;99.90;;;;;;5094730;28;19951;-69
2022/06/07 00:06:50;;;;;;;;;;;13.50;99.90;;;;;;5113091;28;19951;-69
2022/06/07 00:09:15;;;;;;;;;;;13.50;99.90;;;;;;5113264;28;20010;-69
2022/06/07 00:11:41;;;;;;;;;;;13.50;99.90;;;;;;5113146;28;19990;-69
2022/06/07 00:14:06;;;;;;;;;;;13.50;99.90;;;;;;5113056;28;19908;-67
2022/06/07 00:16:32;;;;;;;;;;;13.50;99.90;;;;;;5113249;28;19934;-67
2022/06/07 00:18:57;;;;;;;;;;;13.50;99.90;;;;;;5113345;28;19994;-68
2022/06/07 00:21:23;;;;;;;;;;;13.50;99.90;;;;;;5113001;28;20007;-68
2022/06/07 00:23:48;;;;;;;;;;;13.50;99.90;;;;;;5111311;28;20287;-69
2022/06/07 00:26:14;;;;;;;;;;;13.50;99.90;;;;;;5109659;28;19904;-68
2022/06/07 00:28:40;;;;;;;;;;;13.50;99.90;;;;;;5110909;28;19912;-69
2022/06/07 00:31:05;;;;;;;;;;;13.50;99.90;;;;;;5112844;28;19950;-68
2022/06/07 00:33:31;;;;;;;;;;;13.60;99.90;;;;;;5112784;28;19956;-69
2022/06/07 00:35:56;;;;;;;;;;;13.60;99.90;;;;;;5112355;28;19908;-68
2022/06/07 00:38:22;;;;;;;;;;;13.60;99.90;;;;;;5112949;28;19965;-69
2022/06/07 00:40:47;;;;;;;;;;;13.60;99.90;;;;;;5112287;28;20284;-68
2022/06/07 00:43:13;;;;;;;;;;;13.50;99.90;;;;;;5112575;28;19942;-69
2022/06/07 00:45:39;;;;;;;;;;;13.60;99.90;;;;;;5112651;28;19907;-67
2022/06/07 00:48:05;;;;;;;;;;;13.60;99.90;;;;;;5112495;28;20277;-69
2022/06/07 00:50:47;;;;;;;;;;;13.60;99.90;;;;;;5112403;28;19904;-68
2022/06/07 00:53:32;;;;;;;;;;;13.60;99.90;;;;;;5112319;28;20348;-68
2022/06/07 00:55:58;;;;;;;;;;;13.70;99.90;;;;;;5111166;28;19903;-68
2022/06/07 00:58:26;;;;;;;;;;;13.70;99.90;;;;;;5112603;28;19999;-69
2022/06/07 01:00:55;;;;;;;;;;;13.70;99.90;;;;;;5112340;28;19919;-69
2022/06/07 01:03:21;;;;;;;;;;;13.80;99.90;;;;;;5109611;28;20412;-70
2022/06/07 01:05:47;;;;;;;;;;;13.80;99.90;;;;;;5108664;28;20009;-70
2022/06/07 01:10:57;;;;;;;;;;;13.80;99.90;;;;;;5112231;28;19914;-68
2022/06/07 01:13:26;;;;;;;;;;;13.80;99.90;;;;;;5112127;28;19911;-69
2022/06/07 01:15:55;;;;;;;;;;;13.80;99.90;;;;;;5111780;27;20344;-69
2022/06/07 01:18:21;;;;;;;;;;;13.80;99.90;;;;;;5111888;28;19907;-69
2022/06/07 01:20:47;;;;;;;;;;;13.80;99.90;;;;;;5111663;28;20329;-68
2022/06/07 01:23:12;;;;;;;;;;;13.80;99.90;;;;;;5111844;28;19927;-68
2022/06/07 01:25:38;;;;;;;;;;;13.80;99.90;;;;;;5111839;28;19903;-69
2022/06/07 01:28:04;;;;;;;;;;;13.80;99.90;;;;;;5111286;28;20058;-69
2022/06/07 01:30:29;;;;;;;;;;;13.90;99.90;;;;;;5111676;28;20374;-69
2022/06/07 01:32:55;;;;;;;;;;;13.90;99.90;;;;;;5111707;28;19904;-68
2022/06/07 01:35:20;;;;;;;;;;;13.80;99.90;;;;;;5111500;28;19908;-68
2022/06/07 01:37:46;;;;;;;;;;;13.90;99.90;;;;;;5111620;28;19995;-69
2022/06/07 01:42:55;;;;;;;;;;;13.90;99.90;;;;;;5111772;28;20000;-69
2022/06/07 01:45:21;;;;;;;;;;;14.00;99.90;;;;;;5109922;28;20375;-69
2022/06/07 01:47:47;;;;;;;;;;;13.90;99.90;;;;;;5111207;28;20321;-68
2022/06/07 01:50:12;;;;;;;;;;;13.90;99.90;;;;;;5087664;28;19935;-69
2022/06/07 01:52:38;;;;;;;;;;;13.90;99.90;;;;;;5088063;28;19973;-69
2022/06/07 01:55:05;;;;;;;;;;;13.90;99.90;;;;;;5087796;28;19903;-69
2022/06/07 01:57:30;;;;;;;;;;;14.00;99.90;;;;;;5087972;28;19908;-67
2022/06/07 01:59:56;;;;;;;;;;;13.90;99.90;;;;;;5087623;28;19904;-68
2022/06/07 02:02:25;;;;;;;;;;;13.90;99.90;;;;;;5087873;28;19932;-68
2022/06/07 02:04:51;;;;;;;;;;;14.00;99.90;;;;;;5095119;28;19957;-68
2022/06/07 02:07:18;;;;;;;;;;;14.00;99.90;;;;;;5111173;28;19908;-68
2022/06/07 02:09:44;;;;;;;;;;;14.00;99.90;;;;;;5111133;28;20261;-68
2022/06/07 02:12:10;;;;;;;;;;;14.00;99.90;;;;;;5111347;27;19960;-68
2022/06/07 02:14:36;;;;;;;;;;;13.90;99.90;;;;;;5110937;28;19904;-68
2022/06/07 02:17:01;;;;;;;;;;;13.90;99.90;;;;;;5111277;28;19903;-68
2022/06/07 02:19:27;;;;;;;;;;;13.90;99.90;;;;;;5111212;28;19907;-68
2022/06/07 02:21:52;;;;;;;;;;;13.90;99.90;;;;;;5110677;28;20281;-69
2022/06/07 02:24:18;;;;;;;;;;;13.90;99.90;;;;;;5110933;28;19914;-68
2022/06/07 02:26:49;;;;;;;;;;;13.90;99.90;;;;;;5111064;28;19954;-69
2022/06/07 02:29:17;;;;;;;;;;;13.90;99.90;;;;;;5110856;28;19911;-69
2022/06/07 02:31:49;;;;;;;;;;;14.00;99.90;;;;;;5111242;28;19904;-69
2022/06/07 02:34:15;;;;;;;;;;;14.00;99.90;;;;;;5108959;28;20730;-69
2022/06/07 02:36:42;;;;;;;;;;;14.00;99.90;;;;;;5107616;28;19904;-67
2022/06/07 02:39:07;;;;;;;;;;;14.10;99.90;;;;;;5107598;28;20017;-68
2022/06/07 02:41:34;;;;;;;;;;;14.10;99.90;;;;;;5107234;28;19923;-67
2022/06/07 02:43:59;;;;;;;;;;;14.00;99.90;;;;;;5109195;28;19908;-68
2022/06/07 02:46:25;;;;;;;;;;;14.10;99.90;;;;;;5110783;28;20657;-68
2022/06/07 02:48:51;;;;;;;;;;;14.00;99.90;;;;;;5110664;28;19911;-67
2022/06/07 02:51:16;;;;;;;;;;;14.00;99.90;;;;;;5110534;28;20283;-67
2022/06/07 02:53:42;;;;;;;;;;;14.00;99.90;;;;;;5110746;28;20374;-68
2022/06/07 02:56:07;;;;;;;;;;;14.00;99.90;;;;;;5110667;28;19911;-69
2022/06/07 02:58:33;;;;;;;;;;;14.00;99.90;;;;;;5110726;28;19903;-68
2022/06/07 03:00:58;;;;;;;;;;;14.00;99.90;;;;;;5114044;28;20010;-68
2022/06/07 03:03:24;;;;;;;;;;;14.00;99.90;;;;;;5114527;28;19910;-68
2022/06/07 03:05:50;;;;;;;;;;;14.00;99.90;;;;;;5114331;28;19907;-68
2022/06/07 03:08:18;;;;;;;;;;;14.00;99.90;;;;;;5114609;28;20002;-68
2022/06/07 03:10:47;;;;;;;;;;;14.00;99.90;;;;;;5114513;28;19937;-69
2022/06/07 03:13:13;;;;;;;;;;;14.00;99.90;;;;;;5114467;28;19904;-69
2022/06/07 03:15:39;;;;;;;;;;;14.00;99.90;;;;;;5114204;28;19914;-69
2022/06/07 03:18:04;;;;;;;;;;;14.00;99.90;;;;;;5114313;28;19963;-69
2022/06/07 03:20:30;;;;;;;;;;;14.00;99.90;;;;;;5113977;28;19907;-68
2022/06/07 03:22:55;;;;;;;;;;;13.90;99.90;;;;;;5114206;28;20295;-69
2022/06/07 03:25:23;;;;;;;;;;;13.90;99.90;;;;;;5113610;28;20291;-68
2022/06/07 03:27:48;;;;;;;;;;;13.90;99.90;;;;;;5114165;28;19916;-69
2022/06/07 03:30:14;;;;;;;;;;;13.90;99.90;;;;;;5114129;28;19911;-68
2022/06/07 03:32:39;;;;;;;;;;;13.90;99.90;;;;;;5114097;28;19904;-68
2022/06/07 03:35:05;;;;;;;;;;;13.90;99.90;;;;;;5113657;28;20471;-68
2022/06/07 03:37:31;;;;;;;;;;;13.90;99.90;;;;;;5114104;28;19907;-68
2022/06/07 03:39:56;;;;;;;;;;;13.80;99.90;;;;;;5113556;28;20280;-68
2022/06/07 03:42:22;;;;;;;;;;;13.70;99.90;;;;;;5114106;28;19990;-68
2022/06/07 03:44:50;;;;;;;;;;;13.70;99.90;;;;;;5113846;28;20284;-68
2022/06/07 03:47:17;;;;;;;;;;;13.60;99.90;;;;;;5113814;28;20011;-68
2022/06/07 03:49:42;;;;;;;;;;;13.40;99.90;;;;;;5113713;27;19960;-68
2022/06/07 03:52:08;;;;;;;;;;;13.40;99.90;;;;;;5113614;27;19911;-69
2022/06/07 03:54:33;;;;;;;;;;;13.40;99.90;;;;;;5113643;28;19911;-68
2022/06/07 03:56:59;;;;;;;;;;;13.30;99.90;;;;;;5113589;28;19949;-68
2022/06/07 03:59:27;;;;;;;;;;;13.30;99.90;;;;;;5113370;28;19937;-68
2022/06/07 04:01:52;;;;;;;;;;;13.20;99.90;;;;;;5113556;28;19916;-68
2022/06/07 04:04:18;;;;;;;;;;;13.20;99.90;;;;;;5113717;28;19914;-68
2022/06/07 04:08:10;;;;;;;;;;;13.10;99.90;;;;;;5113233;28;20350;-68
2022/06/07 04:09:31;;;;;;;;;;;13.10;99.90;;;;;;5113232;28;20163;-68
2022/06/07 04:11:56;;;;;;;;;;;13.10;99.90;;;;;;5112887;28;19934;-68
2022/06/07 04:14:22;;;;;;;;;;;13.10;99.90;;;;;;5113052;28;20276;-68
2022/06/07 04:16:47;;;;;;;;;;;13.20;99.90;;;;;;5110862;28;19903;-67
2022/06/07 04:19:13;;;;;;;;;;;13.20;99.90;;;;;;5109956;28;19915;-68
2022/06/07 04:21:38;;;;;;;;;;;13.30;99.90;;;;;;5111663;28;19991;-68
2022/06/07 04:24:04;;;;;;;;;;;13.30;99.90;;;;;;5113059;28;19904;-68
2022/06/07 04:26:30;;;;;;;;;;;13.40;99.90;;;;;;5113112;28;19912;-69
2022/06/07 04:28:57;;;;;;;;;;;13.40;99.90;;;;;;5113198;28;19904;-68
2022/06/07 04:31:23;;;;;;;;;;;13.40;99.90;;;;;;5111516;28;19950;-68
2022/06/07 04:33:50;;;;;;;;;;;13.50;99.90;;;;;;5109683;28;19912;-68
2022/06/07 04:36:18;;;;;;;;;;;13.50;99.90;;;;;;5109333;28;19914;-68
2022/06/07 04:38:44;;;;;;;;;;;13.60;99.90;;;;;;5112284;28;19911;-68
2022/06/07 04:41:10;;;;;;;;;;;13.60;99.90;;;;;;5112077;28;19923;-68
2022/06/07 04:43:36;;;;;;;;;;;13.70;99.90;;;;;;5112895;28;19914;-68
2022/06/07 04:46:03;;;;;;;;;;;13.70;99.90;;;;;;5094339;28;19904;-68
2022/06/07 04:48:28;;;;;;;;;;;13.70;99.90;;;;;;5112598;28;19908;-68
2022/06/07 04:51:05;;;;;;;;;;;13.70;99.90;;;;;;5112298;28;19904;-68
2022/06/07 04:53:31;;;;;;;;;;;13.70;99.90;;;;;;5112457;28;20257;-68
2022/06/07 04:55:57;;;;;;;;;;;13.80;99.90;;;;;;5112472;28;19904;-69
2022/06/07 04:58:22;;;;;;;;;;;13.70;99.90;;;;;;5112350;28;19911;-69
2022/06/07 05:00:48;;;;;;;;;;;13.80;99.90;;;;;;5111361;28;19919;-68
2022/06/07 05:03:14;;;;;;;;;;;13.70;99.90;;;;;;5109361;28;19930;-69
2022/06/07 05:05:39;;;;;;;;;;;13.70;99.90;;;;;;5108909;28;20368;-69
2022/06/07 05:08:05;;;;;;;;;;;13.80;99.90;;;;;;5111626;28;20015;-68
2022/06/07 05:10:30;;;;;;;;;;;13.80;99.90;;;;;;5110706;28;19907;-69
2022/06/07 05:12:56;;;;;;;;;;;13.80;99.90;;;;;;5109476;28;20302;-70
2022/06/07 05:15:21;;;;;;;;;;;13.90;99.90;;;;;;5109524;28;19939;-69
2022/06/07 05:17:47;;;;;;;;;;;13.90;99.90;;;;;;5108764;28;19972;-69
2022/06/07 05:20:13;;;;;;;;;;;14.00;99.90;;;;;;5108780;28;19908;-68
2022/06/07 05:22:38;;;;;;;;;;;14.00;99.90;;;;;;5106455;28;19956;-69
2022/06/07 05:25:04;;;;;;;;;;;14.00;99.90;;;;;;5108590;28;20318;-68
2022/06/07 05:27:34;;;;;;;;;;;14.00;99.90;;;;;;5108616;28;20269;-69
2022/06/07 05:30:00;;;;;;;;;;;13.90;99.90;;;;;;5124379;27;20410;-68
2022/06/07 05:32:26;;;;;;;;;;;14.00;99.90;;;;;;5111370;28;19916;-67
2022/06/07 05:34:51;;;;;;;;;;;14.10;99.90;;;;;;5111927;28;20276;-68
2022/06/07 05:37:18;;;;;;;;;;;14.10;99.90;;;;;;5109190;28;20356;-67
2022/06/07 05:39:44;;;;;;;;;;;14.20;99.90;;;;;;5108580;28;19957;-67
2022/06/07 05:42:11;;;;;;;;;;;14.30;99.90;;;;;;5110424;28;19916;-67
2022/06/07 05:44:36;;;;;;;;;;;14.30;99.90;;;;;;5111577;28;19983;-69
2022/06/07 05:47:03;;;;;;;;;;;14.40;99.90;;;;;;5111439;28;19999;-67
2022/06/07 05:49:28;;;;;;;;;;;14.40;99.90;;;;;;5111593;28;19904;-68
2022/06/07 05:51:54;;;;;;;;;;;14.40;99.90;;;;;;5111341;28;19904;-68
2022/06/07 05:54:19;;;;;;;;;;;14.50;99.90;;;;;;5111414;28;19907;-69
2022/06/07 05:56:45;;;;;;;;;;;14.50;99.90;;;;;;5111293;28;19926;-69
2022/06/07 05:59:10;;;;;;;;;;;14.50;99.90;;;;;;5111291;28;19948;-68
2022/06/07 06:01:36;;;;;;;;;;;14.60;99.90;;;;;;5108896;28;20300;-68
2022/06/07 06:04:06;;;;;;;;;;;14.70;99.90;;;;;;5107954;28;20276;-68
2022/06/07 06:06:33;;;;;;;;;;;14.60;99.90;;;;;;5109261;28;19903;-68
2022/06/07 06:11:43;;;;;;;;;;;14.70;99.90;;;;;;5111253;28;19961;-69
2022/06/07 06:14:08;;;;;;;;;;;14.80;99.90;;;;;;5111009;28;19919;-68
2022/06/07 06:16:34;;;;;;;;;;;14.80;99.90;;;;;;5110943;28;19904;-69
2022/06/07 06:18:59;;;;;;;;;;;14.90;99.90;;;;;;5111201;28;19938;-69
2022/06/07 06:21:27;;;;;;;;;;;14.90;99.90;;;;;;5109488;28;19911;-68
2022/06/07 06:23:52;;;;;;;;;;;14.90;99.90;;;;;;5108006;28;19904;-69
2022/06/07 06:26:19;;;;;;;;;;;15.00;99.90;;;;;;5107852;28;19908;-69
2022/06/07 06:28:44;;;;;;;;;;;15.00;99.90;;;;;;5108330;28;19908;-69
2022/06/07 06:31:11;;;;;;;;;;;15.10;99.90;;;;;;5109432;28;20018;-69
2022/06/07 06:33:41;;;;;;;;;;;15.10;99.90;;;;;;5108046;28;19907;-70
2022/06/07 06:36:08;;;;;;;;;;;15.10;99.90;;;;;;5115061;28;19904;-69
2022/06/07 06:38:34;;;;;;;;;;;15.10;99.90;;;;;;5117976;27;19956;-68
2022/06/07 06:41:06;;;;;;;;;;;15.20;99.90;;;;;;5117527;27;19920;-68
2022/06/07 06:43:32;;;;;;;;;;;15.20;99.90;;;;;;5117636;27;19918;-68
2022/06/07 06:46:04;;;;;;;;;;;15.30;99.90;;;;;;5117825;27;19904;-67
2022/06/07 06:48:29;;;;;;;;;;;15.30;99.90;;;;;;5117909;27;20027;-68
2022/06/07 06:50:59;;;;;;;;;;;15.30;99.90;;;;;;5117439;27;20372;-68
2022/06/07 06:53:24;;;;;;;;;;;15.30;99.90;;;;;;5117620;27;19914;-68
2022/06/07 06:55:50;;;;;;;;;;;15.30;99.90;;;;;;5117410;27;19904;-69
2022/06/07 06:58:15;;;;;;;;;;;15.40;99.90;;;;;;5117561;27;19910;-69
2022/06/07 07:00:41;;;;;;;;;;;15.40;99.90;;;;;;5117327;27;20011;-69
2022/06/07 07:03:06;;;;;;;;;;;15.40;99.90;;;;;;5114234;27;20615;-69
2022/06/07 07:05:35;;;;;;;;;;;15.40;99.90;;;;;;5113652;27;19908;-69
2022/06/07 07:08:00;;;;;;;;;;;15.50;99.90;;;;;;5115997;27;19904;-69
2022/06/07 07:10:26;;;;;;;;;;;15.40;99.90;;;;;;5117059;28;19910;-69
2022/06/07 07:12:51;;;;;;;;;;;15.40;99.90;;;;;;5117280;28;19956;-70
2022/06/07 07:15:18;;;;;;;;;;;15.40;99.90;;;;;;5117283;28;19904;-70
2022/06/07 07:17:46;;;;;;;;;;;15.60;99.90;;;;;;5115958;28;19915;-70
2022/06/07 07:20:12;;;;;;;;;;;15.60;99.90;;;;;;5116879;27;20306;-70
2022/06/07 07:22:37;;;;;;;;;;;15.60;99.90;;;;;;5116765;27;20396;-69
2022/06/07 07:25:04;;;;;;;;;;;15.70;99.90;;;;;;5113937;28;20324;-70
2022/06/07 07:27:29;;;;;;;;;;;15.70;99.90;;;;;;5113960;27;19911;-69
2022/06/07 07:29:55;;;;;;;;;;;15.70;99.90;;;;;;5116931;28;19904;-69
2022/06/07 07:32:20;;;;;;;;;;;15.60;99.90;;;;;;5113612;28;20386;-69
2022/06/07 07:34:47;;;;;;;;;;;15.60;99.90;;;;;;5113985;28;19907;-71
2022/06/07 07:37:12;;;;;;;;;;;15.60;99.90;;;;;;5116045;27;20279;-71
2022/06/07 07:39:38;;;;;;;;;;;15.70;99.90;;;;;;5117068;28;20346;-70
2022/06/07 07:42:03;;;;;;;;;;;15.70;99.90;;;;;;5116610;28;19916;-70
2022/06/07 07:44:29;;;;;;;;;;;15.90;99.90;;;;;;5116717;27;19914;-70
2022/06/07 07:46:55;;;;;;;;;;;15.90;99.90;;;;;;5113227;28;20372;-71
2022/06/07 07:49:21;;;;;;;;;;;15.90;99.90;;;;;;5113827;28;19908;-71
2022/06/07 07:51:48;;;;;;;;;;;16.00;99.90;;;;;;5113809;28;19907;-71
2022/06/07 07:54:15;;;;;;;;;;;16.00;99.90;;;;;;5113947;28;19915;-71
2022/06/07 07:56:41;;;;;;;;;;;16.00;99.90;;;;;;5113951;27;20288;-71
2022/06/07 07:59:07;;;;;;;;;;;16.00;99.90;;;;;;5113762;28;20383;-71
2022/06/07 08:01:33;;;;;;;;;;;16.10;99.90;;;;;;5113517;28;19912;-72
2022/06/07 08:04:00;;;;;;;;;;;16.10;99.90;;;;;;5113648;28;19904;-73
2022/06/07 08:06:27;;;;;;;;;;;16.20;99.90;;;;;;5113354;28;19908;-73
2022/06/07 08:08:53;;;;;;;;;;;16.20;99.90;;;;;;5113447;28;19990;-72
2022/06/07 08:11:21;;;;;;;;;;;16.20;99.90;;;;;;5113500;28;19927;-68
2022/06/07 08:13:46;;;;;;;;;;;16.10;99.90;;;;;;5113550;28;19960;-69
2022/06/07 08:16:13;;;;;;;;;;;16.10;99.90;;;;;;5108823;28;20002;-68
2022/06/07 08:18:38;;;;;;;;;;;16.10;99.90;;;;;;5113174;28;19911;-68
2022/06/07 08:21:06;;;;;;;;;;;16.10;99.90;;;;;;5112647;28;19915;-66
2022/06/07 08:23:32;;;;;;;;;;;16.00;99.90;;;;;;5110611;28;20271;-69
2022/06/07 08:25:59;;;;;;;;;;;16.00;99.90;;;;;;5109308;28;19960;-67
2022/06/07 08:28:25;;;;;;;;;;;15.90;99.90;;;;;;5114088;27;20408;-66
2022/06/07 08:30:50;;;;;;;;;;;15.80;99.90;;;;;;5123446;27;20354;-65
2022/06/07 08:38:44;;;;;;;;;;;15.90;99.90;;;;;;5113012;28;19914;-67
2022/06/07 08:41:28;;;;;;;;;;;16.00;99.90;;;;;;5112631;28;20006;-68
2022/06/07 08:43:59;;;;;;;;;;;16.00;99.90;;;;;;5112166;28;19908;-67
2022/06/07 08:46:28;;;;;;;;;;;16.00;99.90;;;;;;5112893;28;19908;-68
2022/06/07 08:48:53;;;;;;;;;;;16.20;99.90;;;;;;5110923;28;19907;-68
2022/06/07 08:51:29;;;;;;;;;;;16.40;99.90;;;;;;5109632;28;19911;-67
2022/06/07 08:53:56;;;;;;;;;;;16.50;99.90;;;;;;5110013;28;19923;-68
2022/06/07 08:56:24;;;;;;;;;;;16.80;99.90;;;;;;5109629;28;19907;-67
2022/06/07 08:58:54;;;;;;;;;;;16.80;99.90;;;;;;5109276;28;19907;-68
2022/06/07 09:01:23;;;;;;;;;;;17.00;99.90;;;;;;5109183;28;19915;-69
2022/06/07 09:03:54;;;;;;;;;;;17.00;99.90;;;;;;5109370;28;20404;-69
2022/06/07 09:06:21;;;;;;;;;;;16.80;99.90;;;;;;5109248;28;19907;-64
2022/06/07 09:08:51;;;;;;;;;;;16.80;99.90;;;;;;5109354;28;19988;-69
2022/06/07 09:14:05;;;;;;;;;;;16.90;99.90;;;;;;5109228;28;19971;-69
2022/06/07 09:16:41;;;;;;;;;;;17.30;99.90;;;;;;5108962;28;20052;-68
2022/06/07 09:19:11;;;;;;;;;;;17.40;99.90;;;;;;5109153;28;19979;-67
2022/06/07 09:21:39;;;;;;;;;;;17.40;99.90;;;;;;5108837;28;19912;-68
2022/06/07 09:24:08;;;;;;;;;;;17.30;99.90;;;;;;5109323;28;19910;-70
2022/06/07 09:26:38;;;;;;;;;;;17.40;99.90;;;;;;5108685;28;19913;-70
2022/06/07 09:29:05;;;;;;;;;;;17.40;99.90;;;;;;5108982;28;19960;-68
2022/06/07 09:31:31;;;;;;;;;;;17.20;99.90;;;;;;5108613;28;19907;-73
2022/06/07 09:34:03;;;;;;;;;;;17.10;99.90;;;;;;5108853;28;19903;-74
2022/06/07 09:36:31;;;;;;;;;;;17.10;99.90;;;;;;5108473;28;20391;-73
2022/06/07 09:39:05;;;;;;;;;;;17.00;99.90;;;;;;5109011;28;19991;-73
2022/06/07 09:41:40;;;;;;;;;;;17.20;99.90;;;;;;5108475;28;19916;-73
2022/06/07 09:44:22;;;;;;;;;;;17.10;99.90;;;;;;5108531;28;19927;-74
2022/06/07 09:47:01;;;;;;;;;;;17.30;99.90;;;;;;5108696;28;20269;-74
2022/06/07 09:49:30;;;;;;;;;;;17.20;99.90;;;;;;5109032;28;19908;-75
2022/06/07 09:52:03;;;;;;;;;;;17.10;99.90;;;;;;5108423;28;19903;-74
2022/06/07 09:54:28;;;;;;;;;;;17.20;99.90;;;;;;5108224;28;20385;-74
2022/06/07 09:56:57;;;;;;;;;;;17.30;99.90;;;;;;5108053;28;19904;-74
2022/06/07 09:59:37;;;;;;;;;;;17.50;99.90;;;;;;5108436;28;19910;-75
2022/06/07 10:02:08;;;;;;;;;;;17.50;99.90;;;;;;5108239;28;19954;-75
2022/06/07 10:04:42;;;;;;;;;;;17.50;99.90;;;;;;5108293;28;19914;-75
2022/06/07 10:07:11;;;;;;;;;;;17.50;99.90;;;;;;5108409;28;19950;-75
2022/06/07 10:09:51;;;;;;;;;;;17.40;99.90;;;;;;5107873;28;19926;-75
2022/06/07 10:12:16;;;;;;;;;;;17.50;99.90;;;;;;5108608;28;19946;-76
2022/06/07 10:14:48;;;;;;;;;;;17.40;99.90;;;;;;5108126;28;19942;-76
2022/06/07 10:17:13;;;;;;;;;;;17.30;99.90;;;;;;5107583;28;19952;-76
2022/06/07 10:20:06;;;;;;;;;;;17.20;99.90;;;;;;5108397;28;19911;-76
2022/06/07 10:22:31;;;;;;;;;;;17.10;99.90;;;;;;5103829;28;20295;-76
2022/06/07 10:24:57;;;;;;;;;;;17.20;99.90;;;;;;5108023;28;19904;-77
2022/06/07 10:27:23;;;;;;;;;;;17.50;99.90;;;;;;5108102;28;19908;-75
2022/06/07 10:29:48;;;;;;;;;;;17.60;99.90;;;;;;5107677;28;19955;-76
2022/06/07 10:32:13;;;;;;;;;;;17.60;99.90;;;;;;5107867;28;19956;-76
2022/06/07 10:34:51;;;;;;;;;;;17.70;99.90;;;;;;5107685;28;19914;-76
2022/06/07 10:37:32;;;;;;;;;;;17.60;99.90;;;;;;5107909;28;19998;-76
2022/06/07 10:40:00;;;;;;;;;;;17.50;99.90;;;;;;5107473;28;20005;-76
2022/06/07 10:42:34;;;;;;;;;;;17.50;99.90;;;;;;5107480;28;20405;-75
2022/06/07 10:45:03;;;;;;;;;;;17.50;99.90;;;;;;5107823;28;19974;-76
2022/06/07 10:47:32;;;;;;;;;;;17.50;99.90;;;;;;5107867;28;19994;-76
2022/06/07 10:50:00;;;;;;;;;;;17.60;99.90;;;;;;5107198;28;20387;-76
2022/06/07 10:52:31;;;;;;;;;;;17.60;99.90;;;;;;5107915;28;19904;-76
2022/06/07 10:54:57;;;;;;;;;;;17.70;99.90;;;;;;5107788;28;19922;-76
2022/06/07 10:57:31;;;;;;;;;;;17.70;99.90;;;;;;5107488;28;19915;-75
2022/06/07 11:00:00;;;;;;;;;;;17.80;99.90;;;;;;5107642;28;20329;-75
2022/06/07 11:02:44;;;;;;;;;;;17.80;99.90;;;;;;5107567;28;19920;-75
2022/06/07 11:10:44;;;;;;;;;;;17.90;99.90;;;;;;5107688;28;19915;-76
2022/06/07 11:13:16;;;;;;;;;;;17.80;99.90;;;;;;5107364;28;19912;-76
2022/06/07 11:15:54;;;;;;;;;;;17.80;99.90;;;;;;5107594;28;19930;-77
2022/06/07 11:18:21;;;;;;;;;;;17.80;99.90;;;;;;5107493;28;19907;-76
2022/06/07 11:20:48;;;;;;;;;;;17.90;99.90;;;;;;5107031;28;19955;-76
2022/06/07 11:23:16;;;;;;;;;;;18.00;99.90;;;;;;5111151;28;19910;-77
2022/06/07 11:25:43;;;;;;;;;;;17.90;99.90;;;;;;5111401;28;20364;-76
2022/06/07 11:28:13;;;;;;;;;;;18.00;99.90;;;;;;5111480;28;20006;-77
2022/06/07 11:30:39;;;;;;;;;;;18.10;99.90;;;;;;5111041;28;19908;-76
2022/06/07 11:33:24;;;;;;;;;;;18.00;99.90;;;;;;5110633;28;19910;-76
2022/06/07 11:35:51;;;;;;;;;;;18.30;99.90;;;;;;5110337;28;20133;-76
2022/06/07 11:38:17;;;;;;;;;;;18.40;99.90;;;;;;5111226;28;19910;-76
2022/06/07 11:40:43;;;;;;;;;;;18.40;99.90;;;;;;5110618;28;19915;-76
2022/06/07 11:43:27;;;;;;;;;;;18.30;99.90;;;;;;5110912;28;19908;-75
2022/06/07 11:45:53;;;;;;;;;;;18.10;99.90;;;;;;5110722;28;19907;-76
2022/06/07 11:48:23;;;;;;;;;;;17.80;99.90;;;;;;5111033;28;19976;-75
2022/06/07 11:50:52;;;;;;;;;;;17.70;99.90;;;;;;5110734;28;19907;-75
2022/06/07 11:53:20;;;;;;;;;;;17.50;99.90;;;;;;5110883;28;20328;-76
2022/06/07 11:55:48;;;;;;;;;;;17.10;99.90;;;;;;5110791;28;19903;-75
2022/06/07 11:58:13;;;;;;;;;;;16.90;99.90;;;;;;5110640;28;20384;-76
2022/06/07 12:00:39;;;;;;;;;;;16.90;99.90;;;;;;5110793;28;20035;-76
2022/06/07 12:03:06;;;;;;;;;;;17.00;99.90;;;;;;5110323;28;19908;-76
2022/06/07 12:05:40;;;;;;;;;;;17.00;99.90;;;;;;5110472;28;19911;-76
2022/06/07 12:08:44;;;;;;;;;;;17.20;99.90;;;;;;5110698;28;20356;-75
2022/06/07 12:11:20;;;;;;;;;;;17.30;99.90;;;;;;5047064;28;20415;-76
2022/06/07 12:13:52;;;;;;;;;;;17.40;99.90;;;;;;5047097;28;19996;-75
2022/06/07 12:16:37;;;;;;;;;;;17.50;99.90;;;;;;5083351;28;20294;-75
2022/06/07 12:19:22;;;;;;;;;;;17.60;99.90;;;;;;5110202;28;19907;-74
2022/06/07 12:21:54;;;;;;;;;;;17.80;99.90;;;;;;5109917;28;20332;-74
2022/06/07 12:24:20;;;;;;;;;;;18.00;99.90;;;;;;5091965;28;20045;-75
2022/06/07 12:26:47;;;;;;;;;;;18.10;99.90;;;;;;5110275;28;19980;-75
2022/06/07 12:29:22;;;;;;;;;;;18.20;99.90;;;;;;5109988;28;19952;-74
2022/06/07 12:31:51;;;;;;;;;;;18.20;99.90;;;;;;5109683;28;19956;-75
2022/06/07 12:34:19;;;;;;;;;;;18.30;99.90;;;;;;5109911;28;19915;-75
2022/06/07 12:36:49;;;;;;;;;;;18.50;99.90;;;;;;5109982;28;20007;-75
2022/06/07 12:39:15;;;;;;;;;;;18.20;99.90;;;;;;5109843;28;19904;-74
2022/06/07 12:42:08;;;;;;;;;;;18.30;99.90;;;;;;5109306;28;19923;-74
2022/06/07 12:44:37;;;;;;;;;;;18.30;99.90;;;;;;5106746;28;19961;-75
2022/06/07 12:47:05;;;;;;;;;;;18.30;99.90;;;;;;5109738;28;19914;-75
2022/06/07 12:49:41;;;;;;;;;;;18.20;99.90;;;;;;5109550;28;20394;-74
2022/06/07 12:52:13;;;;;;;;;;;18.40;99.90;;;;;;5108992;28;19926;-74
2022/06/07 12:54:38;;;;;;;;;;;18.50;99.90;;;;;;5109437;28;20344;-76
2022/06/07 12:57:12;;;;;;;;;;;18.70;99.90;;;;;;5109316;28;19942;-75
2022/06/07 12:59:40;;;;;;;;;;;18.80;99.90;;;;;;5109360;28;19904;-75
2022/06/07 13:02:16;;;;;;;;;;;18.90;99.90;;;;;;5108707;28;19912;-75
2022/06/07 13:04:47;;;;;;;;;;;19.20;99.90;;;;;;5106677;28;19908;-75
2022/06/07 13:07:12;;;;;;;;;;;19.60;99.90;;;;;;5109053;28;19908;-75
2022/06/07 13:09:38;;;;;;;;;;;19.70;99.90;;;;;;5109146;28;19953;-75
2022/06/07 13:12:04;;;;;;;;;;;19.30;99.90;;;;;;5109171;28;19907;-75
2022/06/07 13:14:30;;;;;;;;;;;19.60;99.90;;;;;;5109113;28;19904;-76
2022/06/07 13:17:10;;;;;;;;;;;19.90;99.90;;;;;;5108865;28;19905;-75
2022/06/07 13:19:39;;;;;;;;;;;20.30;99.90;;;;;;5108941;28;19972;-75
2022/06/07 13:22:14;;;;;;;;;;;20.50;99.90;;;;;;5109124;28;20017;-74
2022/06/07 13:24:44;;;;;;;;;;;19.50;99.90;;;;;;5109365;28;19926;-75
2022/06/07 13:27:28;;;;;;;;;;;19.30;99.90;;;;;;5109067;28;19908;-75
2022/06/07 13:29:54;;;;;;;;;;;19.00;99.90;;;;;;5124802;27;20423;-75
2022/06/07 13:32:21;;;;;;;;;;;18.70;99.90;;;;;;5109139;28;20399;-75
2022/06/07 13:35:10;;;;;;;;;;;18.70;99.90;;;;;;5108428;28;19930;-74
2022/06/07 13:37:36;;;;;;;;;;;18.20;99.90;;;;;;5100499;28;19967;-74
2022/06/07 13:40:02;;;;;;;;;;;17.90;99.90;;;;;;5108491;28;19907;-74
2022/06/07 13:42:36;;;;;;;;;;;17.80;99.90;;;;;;5108511;28;20406;-73
2022/06/07 13:45:11;;;;;;;;;;;17.50;99.90;;;;;;5107720;28;19931;-73
2022/06/07 13:47:38;;;;;;;;;;;17.50;99.90;;;;;;5108276;28;19960;-73
2022/06/07 13:53:21;;;;;;;;;;;17.60;99.90;;;;;;5108436;28;20395;-74
2022/06/07 13:55:50;;;;;;;;;;;17.70;99.90;;;;;;5108215;28;20360;-73
2022/06/07 13:58:16;;;;;;;;;;;17.60;99.90;;;;;;5108293;28;19949;-73
2022/06/07 14:00:42;;;;;;;;;;;17.60;99.90;;;;;;5108106;28;19911;-73
2022/06/07 14:03:15;;;;;;;;;;;17.80;99.90;;;;;;5107769;28;19918;-72
2022/06/07 14:05:41;;;;;;;;;;;18.00;99.90;;;;;;5107695;28;19903;-72
2022/06/07 14:08:11;;;;;;;;;;;18.20;99.90;;;;;;5107981;28;19908;-71
2022/06/07 14:10:37;;;;;;;;;;;18.30;99.90;;;;;;5100612;28;20284;-67
2022/06/07 14:13:02;;;;;;;;;;;18.40;99.90;;;;;;5107648;28;19907;-68
2022/06/07 14:15:28;;;;;;;;;;;18.30;99.90;;;;;;5107809;28;19957;-71
2022/06/07 14:17:54;;;;;;;;;;;18.20;99.90;;;;;;5107507;28;19954;-70
2022/06/07 14:20:21;;;;;;;;;;;18.00;99.90;;;;;;5107455;28;19915;-69
2022/06/07 14:22:49;;;;;;;;;;;17.90;99.90;;;;;;5108144;28;19904;-68
2022/06/07 14:25:16;;;;;;;;;;;17.90;99.90;;;;;;5107635;28;19911;-69
2022/06/07 14:27:42;;;;;;;;;;;17.90;99.90;;;;;;5107617;28;20337;-69
2022/06/07 14:30:08;;;;;;;;;;;17.80;99.90;;;;;;5107568;28;19924;-68
2022/06/07 14:32:37;;;;;;;;;;;17.90;99.90;;;;;;5107464;28;20002;-68
2022/06/07 14:35:12;;;;;;;;;;;18.00;99.90;;;;;;5107535;28;19995;-70
2022/06/07 14:37:38;;;;;;;;;;;18.00;99.90;;;;;;5107711;28;20364;-70
2022/06/07 14:40:06;;;;;;;;;;;17.90;99.90;;;;;;5107777;28;19914;-71
2022/06/07 14:42:31;;;;;;;;;;;17.90;99.90;;;;;;5107833;28;19915;-70
2022/06/07 14:44:57;;;;;;;;;;;17.70;99.90;;;;;;5107733;28;20281;-70
2022/06/07 14:47:23;;;;;;;;;;;17.80;99.90;;;;;;5108040;28;19948;-70